createdAt,value
2018-02-20T00:02:02.077Z,67.37
2018-02-20T00:04:30.296Z,77.07
2018-02-20T00:06:57.743Z,67.95
2018-02-20T00:09:25.197Z,71.12
2018-02-20T00:11:52.652Z,78.80
2018-02-20T00:14:20.100Z,70.78
2018-02-20T00:16:48.337Z,69.15
2018-02-20T00:19:15.783Z,77.15
2018-02-20T00:21:43.241Z,72.25
2018-02-20T00:24:10.695Z,81.45
2018-02-20T00:26:38.140Z,64.20
2018-02-20T00:29:06.354Z,71.00
2018-02-20T00:31:33.797Z,78.68
2018-02-20T00:34:01.277Z,83.13
2018-02-20T00:36:28.728Z,83.25
2018-02-20T00:38:56.932Z,79.15
2018-02-20T00:41:24.417Z,81.30
2018-02-20T00:43:51.857Z,79.90
2018-02-20T00:46:19.310Z,90.35
2018-02-20T00:48:46.766Z,85.20
2018-02-20T00:51:14.204Z,81.75
2018-02-20T00:53:41.660Z,77.97
2018-02-20T00:56:09.880Z,82.28
2018-02-20T00:58:37.322Z,82.22
2018-02-20T01:01:04.761Z,74.60
2018-02-20T01:03:32.220Z,74.03
2018-02-20T01:05:59.658Z,82.62
2018-02-20T01:08:27.126Z,81.37
2018-02-20T01:10:54.560Z,75.53
2018-02-20T01:13:22.012Z,79.37
2018-02-20T01:15:49.460Z,79.25
2018-02-20T01:18:16.910Z,69.40
2018-02-20T01:20:44.360Z,75.53
2018-02-20T01:23:12.587Z,70.62
2018-02-20T01:25:40.020Z,77.12
2018-02-20T01:28:07.476Z,84.87
2018-02-20T01:30:34.908Z,92.60
2018-02-20T01:33:03.127Z,82.83
2018-02-20T01:35:30.575Z,76.30
2018-02-20T01:37:58.019Z,84.35
2018-02-20T01:40:25.462Z,75.07
2018-02-20T01:42:52.914Z,82.03
2018-02-20T01:45:20.370Z,90.87
2018-02-20T01:47:47.826Z,98.68
2018-02-20T01:50:15.282Z,102.07
2018-02-20T01:52:43.496Z,110.32
2018-02-20T01:55:11.783Z,112.62
2018-02-20T01:57:39.249Z,125.35
2018-02-20T02:00:07.516Z,114.97
2018-02-20T02:07:29.009Z,91.90
2018-02-20T02:09:56.473Z,111.22
2018-02-20T02:12:23.925Z,90.78
2018-02-20T02:14:51.382Z,85.60
2018-02-20T02:17:18.823Z,85.40
2018-02-20T02:19:46.290Z,56.00
2018-02-20T02:22:14.532Z,69.13
2018-02-20T02:24:41.986Z,65.27
2018-02-20T02:27:09.427Z,47.93
2018-02-20T02:29:36.888Z,56.13
2018-02-20T02:32:04.334Z,58.60
2018-02-20T02:34:31.794Z,72.83
2018-02-20T02:36:59.999Z,51.23
2018-02-20T02:39:27.457Z,63.80
2018-02-20T02:41:55.713Z,78.57
2018-02-20T02:44:23.157Z,84.35
2018-02-20T02:46:50.611Z,84.78
2018-02-20T02:49:18.057Z,85.15
2018-02-20T02:51:45.508Z,85.40
2018-02-20T02:54:12.957Z,87.82
2018-02-20T02:56:40.437Z,84.30
2018-02-20T02:59:08.644Z,81.65
2018-02-20T03:01:36.910Z,81.55
2018-02-20T03:04:04.307Z,80.15
2018-02-20T03:06:31.776Z,89.43
2018-02-20T03:08:59.223Z,77.18
2018-02-20T03:11:26.677Z,81.30
2018-02-20T03:13:55.341Z,86.90
2018-02-20T03:16:22.821Z,73.95
2018-02-20T03:18:50.252Z,74.80
2018-02-20T03:21:18.471Z,70.30
2018-02-20T03:23:45.916Z,73.22
2018-02-20T03:26:13.374Z,88.10
2018-02-20T03:28:40.819Z,76.60
2018-02-20T03:31:08.282Z,76.03
2018-02-20T03:33:36.490Z,72.12
2018-02-20T03:36:03.946Z,83.30
2018-02-20T03:38:32.160Z,79.37
2018-02-20T03:41:00.387Z,66.43
2018-02-20T03:43:27.833Z,69.20
2018-02-20T03:45:56.044Z,74.18
2018-02-20T03:48:23.505Z,74.90
2018-02-20T03:50:51.720Z,69.95
2018-02-20T03:53:19.160Z,71.72
2018-02-20T03:55:46.643Z,74.55
2018-02-20T03:58:14.088Z,73.50
2018-02-20T04:00:41.555Z,73.53
2018-02-20T04:03:08.995Z,68.75
2018-02-20T04:05:36.452Z,64.97
2018-02-20T04:08:03.893Z,68.32
2018-02-20T04:10:31.352Z,69.17
2018-02-20T04:12:59.565Z,70.47
2018-02-20T04:15:27.011Z,65.45
2018-02-20T04:17:54.473Z,66.37
2018-02-20T04:20:21.933Z,67.90
2018-02-20T04:22:49.382Z,62.53
2018-02-20T04:25:17.595Z,61.80
2018-02-20T04:27:45.042Z,63.47
2018-02-20T04:30:12.483Z,63.35
2018-02-20T04:32:39.938Z,64.60
2018-02-20T04:35:07.382Z,60.55
2018-02-20T04:37:34.827Z,63.70
2018-02-20T04:40:02.270Z,68.07
2018-02-20T04:42:30.498Z,70.53
2018-02-20T04:44:57.950Z,72.18
2018-02-20T04:47:25.399Z,71.87
2018-02-20T04:49:52.835Z,69.85
2018-02-20T04:52:20.292Z,71.10
2018-02-20T04:54:47.730Z,65.70
2018-02-20T04:57:15.184Z,60.75
2018-02-20T04:59:42.627Z,55.40
2018-02-20T05:02:10.867Z,60.92
2018-02-20T05:04:38.303Z,66.57
2018-02-20T05:07:06.526Z,62.47
2018-02-20T05:09:33.977Z,62.60
2018-02-20T05:12:02.200Z,67.72
2018-02-20T05:14:29.639Z,73.25
2018-02-20T05:16:57.106Z,69.00
2018-02-20T05:19:24.558Z,62.33
2018-02-20T05:21:52.004Z,66.87
2018-02-20T05:24:20.228Z,63.58
2018-02-20T05:26:47.677Z,66.85
2018-02-20T05:29:15.899Z,65.40
2018-02-20T05:31:43.363Z,61.10
2018-02-20T05:34:11.572Z,63.87
2018-02-20T05:36:39.023Z,62.05
2018-02-20T05:39:06.486Z,62.30
2018-02-20T05:41:33.933Z,60.47
2018-02-20T05:44:01.374Z,68.55
2018-02-20T05:46:28.823Z,66.20
2018-02-20T05:48:56.267Z,63.57
2018-02-20T05:51:23.743Z,65.28
2018-02-20T05:53:51.188Z,63.10
2018-02-20T05:56:18.659Z,61.05
2018-02-20T05:58:46.872Z,62.38
2018-02-20T06:01:14.340Z,62.30
2018-02-20T06:03:41.780Z,58.00
2018-02-20T06:06:09.232Z,60.47
2018-02-20T06:08:37.441Z,57.65
2018-02-20T06:11:04.889Z,53.95
2018-02-20T06:13:32.330Z,61.90
2018-02-20T06:15:59.839Z,60.20
2018-02-20T06:18:27.238Z,58.83
2018-02-20T06:20:54.679Z,61.75
2018-02-20T06:23:22.128Z,59.60
2018-02-20T06:25:49.582Z,61.10
2018-02-20T06:28:17.790Z,58.95
2018-02-20T06:30:46.015Z,55.83
2018-02-20T06:33:13.459Z,59.22
2018-02-20T06:35:40.916Z,54.70
2018-02-20T06:38:09.148Z,60.05
2018-02-20T06:40:37.356Z,58.50
2018-02-20T06:43:05.572Z,58.40
2018-02-20T06:45:33.008Z,52.70
2018-02-20T06:48:00.455Z,54.33
2018-02-20T06:50:27.888Z,54.53
2018-02-20T06:52:56.103Z,53.65
2018-02-20T06:55:23.539Z,54.70
2018-02-20T06:57:52.495Z,61.42
2018-02-20T07:00:20.337Z,55.08
2018-02-20T07:02:47.800Z,60.03
2018-02-20T07:05:15.216Z,56.00
2018-02-20T07:07:42.667Z,65.87
2018-02-20T07:10:10.112Z,56.42
2018-02-20T07:12:37.571Z,58.00
2018-02-20T07:15:05.012Z,52.40
2018-02-20T07:17:32.483Z,55.70
2018-02-20T07:19:59.906Z,56.10
2018-02-20T07:22:27.352Z,52.38
2018-02-20T07:24:54.827Z,51.28
2018-02-20T07:27:22.271Z,50.83
2018-02-20T07:29:50.484Z,54.17
2018-02-20T07:32:17.948Z,53.15
2018-02-20T07:34:46.152Z,55.08
2018-02-20T07:37:14.364Z,56.53
2018-02-20T07:39:41.799Z,55.63
2018-02-20T07:42:09.239Z,55.63
2018-02-20T07:44:36.679Z,51.47
2018-02-20T07:47:04.892Z,60.75
2018-02-20T07:49:33.104Z,54.03
2018-02-20T07:52:00.549Z,56.30
2018-02-20T07:54:28.755Z,56.80
2018-02-20T07:56:56.965Z,53.33
2018-02-20T07:59:24.411Z,53.40
2018-02-20T08:01:51.855Z,49.65
2018-02-20T08:04:19.308Z,49.42
2018-02-20T08:06:47.535Z,50.08
2018-02-20T08:09:15.905Z,56.45
2018-02-20T08:11:44.103Z,50.55
2018-02-20T08:14:12.312Z,47.75
2018-02-20T08:16:39.747Z,47.50
2018-02-20T08:19:08.213Z,46.58
2018-02-20T08:21:35.661Z,44.47
2018-02-20T08:24:03.868Z,43.50
2018-02-20T08:26:32.074Z,43.53
2018-02-20T08:28:59.520Z,41.57
2018-02-20T08:31:26.947Z,39.03
2018-02-20T08:33:54.401Z,39.35
2018-02-20T08:36:22.645Z,38.45
2018-02-20T08:38:50.820Z,39.50
2018-02-20T08:41:18.252Z,37.40
2018-02-20T08:43:45.694Z,42.95
2018-02-20T08:46:13.152Z,37.60
2018-02-20T08:48:41.360Z,37.05
2018-02-20T08:51:08.797Z,35.10
2018-02-20T08:53:36.267Z,38.70
2018-02-20T08:56:03.708Z,48.63
2018-02-20T08:58:31.148Z,42.50
2018-02-20T09:00:58.593Z,36.20
2018-02-20T09:03:26.033Z,36.35
2018-02-20T09:05:53.481Z,36.05
2018-02-20T09:08:20.924Z,35.28
2018-02-20T09:10:48.355Z,35.72
2018-02-20T09:13:16.568Z,29.55
2018-02-20T09:15:44.784Z,28.35
2018-02-20T09:18:12.215Z,30.17
2018-02-20T09:20:39.661Z,25.27
2018-02-20T09:23:07.103Z,26.30
2018-02-20T09:25:35.315Z,25.85
2018-02-20T09:28:02.755Z,30.98
2018-02-20T09:30:30.209Z,28.87
2018-02-20T09:32:57.643Z,27.67
2018-02-20T09:35:25.852Z,23.48
2018-02-20T09:37:54.097Z,21.90
2018-02-20T09:40:22.276Z,23.40
2018-02-20T09:42:49.708Z,21.45
2018-02-20T09:45:17.147Z,23.87
2018-02-20T09:47:44.596Z,25.37
2018-02-20T09:50:12.808Z,28.20
2018-02-20T09:52:40.252Z,24.95
2018-02-20T09:55:07.700Z,23.60
2018-02-20T09:57:35.139Z,27.58
2018-02-20T10:00:03.345Z,24.00
2018-02-20T10:02:31.547Z,26.17
2018-02-20T10:04:58.994Z,24.70
2018-02-20T10:07:26.431Z,28.48
2018-02-20T10:09:53.880Z,25.23
2018-02-20T10:12:22.084Z,29.17
2018-02-20T10:14:49.520Z,29.00
2018-02-20T10:17:16.959Z,35.83
2018-02-20T10:19:44.416Z,28.55
2018-02-20T10:22:12.615Z,31.15
2018-02-20T10:24:40.814Z,29.48
2018-02-20T10:27:09.028Z,32.13
2018-02-20T10:29:37.223Z,26.73
2018-02-20T10:32:05.487Z,26.15
2018-02-20T10:34:32.869Z,29.52
2018-02-20T10:37:00.312Z,26.33
2018-02-20T10:39:27.763Z,28.50
2018-02-20T10:41:55.207Z,30.67
2018-02-20T10:44:22.648Z,28.50
2018-02-20T10:46:50.090Z,27.87
2018-02-20T10:49:17.536Z,28.10
2018-02-20T10:51:44.973Z,26.62
2018-02-20T10:54:12.415Z,27.00
2018-02-20T10:56:39.850Z,29.12
2018-02-20T10:59:07.291Z,26.65
2018-02-20T11:01:34.742Z,28.70
2018-02-20T11:04:02.180Z,30.62
2018-02-20T11:06:29.629Z,29.42
2018-02-20T11:08:57.059Z,26.20
2018-02-20T11:11:24.516Z,28.62
2018-02-20T11:13:52.725Z,29.40
2018-02-20T11:16:20.927Z,31.45
2018-02-20T11:18:48.355Z,31.10
2018-02-20T11:21:15.807Z,29.08
2018-02-20T11:23:43.244Z,24.60
2018-02-20T11:26:11.465Z,30.50
2018-02-20T11:28:38.912Z,33.80
2018-02-20T11:31:06.355Z,34.65
2018-02-20T11:33:33.809Z,34.75
2018-02-20T11:36:01.260Z,33.53
2018-02-20T11:38:28.696Z,36.70
2018-02-20T11:40:56.148Z,36.92
2018-02-20T11:43:23.579Z,36.63
2018-02-20T11:45:51.041Z,41.85
2018-02-20T11:48:18.476Z,40.80
2018-02-20T11:50:46.699Z,47.38
2018-02-20T11:53:14.127Z,49.65
2018-02-20T11:55:41.571Z,42.90
2018-02-20T11:58:09.003Z,50.33
2018-02-20T12:00:36.454Z,54.67
2018-02-20T12:03:03.888Z,42.03
2018-02-20T12:05:32.090Z,51.03
2018-02-20T12:08:00.302Z,46.63
2018-02-20T12:10:27.748Z,51.10
2018-02-20T12:12:55.199Z,55.20
2018-02-20T12:15:22.641Z,57.60
2018-02-20T12:17:50.865Z,58.20
2018-02-20T12:20:18.339Z,60.50
2018-02-20T12:22:46.524Z,59.63
2018-02-20T12:25:13.976Z,58.83
2018-02-20T12:27:41.428Z,61.22
2018-02-20T12:30:08.889Z,64.50
2018-02-20T12:32:36.340Z,56.35
2018-02-20T12:35:04.544Z,65.77
2018-02-20T12:37:31.987Z,56.30
2018-02-20T12:39:59.423Z,53.50
2018-02-20T14:20:39.048Z,57.00
2018-02-20T14:23:06.507Z,49.70
2018-02-20T14:25:33.940Z,66.95
2018-02-20T14:28:01.400Z,59.35
2018-02-20T14:30:28.852Z,64.10
2018-02-20T14:32:57.070Z,58.40
2018-02-20T14:35:24.523Z,59.00
2018-02-20T14:37:51.983Z,56.37
2018-02-20T14:40:19.428Z,55.63
2018-02-20T14:42:46.875Z,53.42
2018-02-20T14:45:15.092Z,52.78
2018-02-20T14:47:43.300Z,55.00
2018-02-20T14:50:10.744Z,56.45
2018-02-20T14:52:38.196Z,54.67
2018-02-20T14:55:05.638Z,55.72
2018-02-20T14:57:33.855Z,52.80
2018-02-20T15:00:01.288Z,50.08
2018-02-20T15:02:28.727Z,49.80
2018-02-20T15:04:56.163Z,53.05
2018-02-20T15:07:23.602Z,52.20
2018-02-20T15:09:51.044Z,46.25
2018-02-20T15:12:19.251Z,55.42
2018-02-20T15:14:46.692Z,47.50
2018-02-20T15:17:14.134Z,49.47
2018-02-20T15:19:41.579Z,49.30
2018-02-20T15:22:09.793Z,53.33
2018-02-20T15:24:37.242Z,52.88
2018-02-20T15:27:04.687Z,51.10
2018-02-20T15:29:32.132Z,53.00
2018-02-20T15:32:00.341Z,57.22
2018-02-20T15:34:28.543Z,53.38
2018-02-20T15:36:56.028Z,58.22
2018-02-20T15:39:24.229Z,57.78
2018-02-20T15:41:51.669Z,57.33
2018-02-20T15:44:19.111Z,58.83
2018-02-20T15:46:46.559Z,60.50
2018-02-20T15:49:14.772Z,60.70
2018-02-20T15:51:42.228Z,65.30
2018-02-20T15:54:09.680Z,58.87
2018-02-20T15:56:37.163Z,58.13
2018-02-20T15:59:05.339Z,58.60
2018-02-20T16:45:44.731Z,44.00
2018-02-20T16:48:12.184Z,53.90
2018-02-20T16:50:40.388Z,46.78
2018-02-20T16:53:08.609Z,50.63
2018-02-20T16:55:36.060Z,58.08
2018-02-20T16:58:03.516Z,51.60
2018-02-20T17:00:30.960Z,56.22
2018-02-20T17:02:58.399Z,50.70
2018-02-20T17:05:25.844Z,43.53
2018-02-20T17:07:53.308Z,48.85
2018-02-20T17:10:20.765Z,51.42
2018-02-20T17:12:48.972Z,51.60
2018-02-20T17:15:17.192Z,53.78
2018-02-20T17:17:45.412Z,47.53
2018-02-20T17:20:12.865Z,52.62
2018-02-20T17:22:41.076Z,51.70
2018-02-20T17:25:08.532Z,59.47
2018-02-20T17:27:35.967Z,52.45
2018-02-20T17:30:03.482Z,58.42
2018-02-20T17:32:30.881Z,53.38
2018-02-20T17:34:59.108Z,57.30
2018-02-20T17:37:26.560Z,58.17
2018-02-20T17:39:53.997Z,54.13
2018-02-20T17:42:21.445Z,57.00
2018-02-20T17:44:48.875Z,64.15
2018-02-20T17:47:17.103Z,62.10
2018-02-20T17:49:44.544Z,67.55
2018-02-20T17:52:11.989Z,61.95
2018-02-20T17:54:39.437Z,63.87
2018-02-20T17:57:06.892Z,71.32
2018-02-20T17:59:34.336Z,67.30
2018-02-20T18:02:01.807Z,69.75
2018-02-20T18:04:29.248Z,69.65
2018-02-20T18:06:56.706Z,72.60
2018-02-20T18:09:24.149Z,85.10
2018-02-20T18:11:52.388Z,83.95
2018-02-20T18:14:19.828Z,101.32
2018-02-20T18:16:48.065Z,102.68
2018-02-20T18:19:15.521Z,94.95
2018-02-20T18:21:42.985Z,90.60
2018-02-20T18:24:10.430Z,95.85
2018-02-20T18:26:37.906Z,100.10
2018-02-20T18:29:05.344Z,101.43
2018-02-20T18:31:33.559Z,98.73
2018-02-20T18:34:01.013Z,101.62
2018-02-20T18:36:29.235Z,104.20
2018-02-20T18:38:56.672Z,95.47
2018-02-20T18:41:24.128Z,96.35
2018-02-20T18:43:51.571Z,99.78
2018-02-20T18:46:19.016Z,106.53
2018-02-20T18:48:46.463Z,119.85
2018-02-20T18:51:13.912Z,114.93
2018-02-20T18:53:41.367Z,108.65
2018-02-20T18:56:08.812Z,114.30
2018-02-20T18:58:36.276Z,114.47
2018-02-20T19:01:03.720Z,104.72
2018-02-20T19:03:31.936Z,106.55
2018-02-20T19:05:59.384Z,110.35
2018-02-20T19:08:26.841Z,114.57
2018-02-20T19:10:55.044Z,107.15
2018-02-20T19:13:22.504Z,113.70
2018-02-20T19:15:49.952Z,99.97
2018-02-20T19:18:18.184Z,112.10
2018-02-20T19:20:45.629Z,109.00
2018-02-20T19:23:13.847Z,102.45
2018-02-20T19:25:41.300Z,100.07
2018-02-20T19:28:09.524Z,117.20
2018-02-20T19:30:36.968Z,108.37
2018-02-20T19:33:04.785Z,120.65
2018-02-20T19:35:32.237Z,120.95
2018-02-20T19:37:59.683Z,125.20
2018-02-20T19:40:27.132Z,135.82
2018-02-20T19:42:54.584Z,112.15
2018-02-20T19:45:22.033Z,111.43
2018-02-20T19:47:49.484Z,114.30
2018-02-20T19:50:16.940Z,108.90
2018-02-20T19:52:45.194Z,112.75
2018-02-20T19:55:12.645Z,114.37
2018-02-20T19:57:40.094Z,121.70
2018-02-20T20:00:08.340Z,106.37
2018-02-20T20:02:36.205Z,103.25
2018-02-20T20:05:03.648Z,116.40
2018-02-20T20:07:31.095Z,113.57
2018-02-20T20:09:58.552Z,109.00
2018-02-20T20:12:26.000Z,102.10
2018-02-20T20:14:54.220Z,101.32
2018-02-20T20:17:21.683Z,96.87
2018-02-20T20:19:49.893Z,88.83
2018-02-20T20:22:18.105Z,97.78
2018-02-20T20:24:45.564Z,94.20
2018-02-20T20:27:13.769Z,88.72
2018-02-20T20:29:42.013Z,94.33
2018-02-20T20:32:09.457Z,86.45
2018-02-20T20:34:36.916Z,90.38
2018-02-20T20:37:04.356Z,96.80
2018-02-20T20:39:31.816Z,95.97
2018-02-20T20:41:59.261Z,99.65
2018-02-20T20:44:27.480Z,91.93
2018-02-20T20:46:54.919Z,95.43
2018-02-20T20:49:22.393Z,81.37
2018-02-20T20:51:49.823Z,85.40
2018-02-20T20:54:17.284Z,87.75
2018-02-20T20:56:45.505Z,77.32
2018-02-20T20:59:12.951Z,84.97
2018-02-20T21:01:40.391Z,81.87
2018-02-20T21:04:07.853Z,88.00
2018-02-20T21:06:35.287Z,88.15
2018-02-20T21:09:02.763Z,82.62
2018-02-20T21:11:30.201Z,83.78
2018-02-20T21:13:57.652Z,88.35
2018-02-20T21:16:25.862Z,85.50
2018-02-20T21:18:53.324Z,92.05
2018-02-20T21:21:20.780Z,88.18
2018-02-20T21:23:48.207Z,93.40
2018-02-20T21:26:15.677Z,83.25
2018-02-20T21:28:43.887Z,88.05
2018-02-20T21:31:11.334Z,77.62
2018-02-20T21:33:38.779Z,80.65
2018-02-20T21:36:06.228Z,76.93
2018-02-20T21:38:33.670Z,73.97
2018-02-20T21:41:01.125Z,68.78
2018-02-20T21:43:28.563Z,67.95
2018-02-20T21:45:56.775Z,70.80
2018-02-20T21:48:24.223Z,68.40
2018-02-20T21:50:51.672Z,57.03
2018-02-20T21:53:19.115Z,58.15
2018-02-20T21:55:46.559Z,48.87
2018-02-20T21:58:14.008Z,49.27
2018-02-20T22:00:41.488Z,50.00
2018-02-20T22:03:08.903Z,55.85
2018-02-20T22:05:36.360Z,60.60
2018-02-20T22:08:03.802Z,53.00
2018-02-20T22:10:32.020Z,61.23
2018-02-20T22:12:59.478Z,58.65
2018-02-20T22:15:27.695Z,58.20
2018-02-20T22:17:55.136Z,64.25
2018-02-20T22:20:23.359Z,59.80
2018-02-20T22:22:50.803Z,68.05
2018-02-20T22:25:18.252Z,69.45
2018-02-20T22:27:45.703Z,72.05
2018-02-20T22:30:13.134Z,75.72
2018-02-20T22:32:40.583Z,64.47
2018-02-20T22:35:08.037Z,71.45
2018-02-20T22:37:36.252Z,72.40
2018-02-20T22:40:03.705Z,64.37
2018-02-20T22:42:31.932Z,69.22
2018-02-20T22:44:59.382Z,67.70
2018-02-20T22:47:27.597Z,67.45
2018-02-20T22:49:55.043Z,73.95
2018-02-20T22:52:22.497Z,78.25
2018-02-20T22:54:49.948Z,85.65
2018-02-20T22:57:17.400Z,80.95
2018-02-20T22:59:45.613Z,84.03
2018-02-20T23:02:13.063Z,92.12
2018-02-20T23:04:40.569Z,90.30
2018-02-20T23:07:07.959Z,92.40
2018-02-20T23:09:35.404Z,90.60
2018-02-20T23:12:02.852Z,96.07
2018-02-20T23:14:30.297Z,88.68
2018-02-20T23:16:58.511Z,89.05
2018-02-20T23:19:25.951Z,100.23
2018-02-20T23:21:53.407Z,90.78
2018-02-20T23:24:20.852Z,84.35
2018-02-20T23:26:48.312Z,78.53
2018-02-20T23:29:16.532Z,84.82
2018-02-20T23:31:43.987Z,91.50
2018-02-20T23:34:11.436Z,91.50
2018-02-20T23:36:38.887Z,87.28
2018-02-20T23:39:06.326Z,88.90
2018-02-20T23:41:33.780Z,81.40
2018-02-20T23:44:01.214Z,93.28
2018-02-20T23:46:28.672Z,78.22
2018-02-20T23:48:56.888Z,76.00
2018-02-20T23:51:29.939Z,89.03
2018-02-20T23:53:57.388Z,83.75
2018-02-20T23:56:24.850Z,75.68
2018-02-20T23:58:52.292Z,82.35
